Flight Track Log - Related Links

Times and Time Zones

All times are in EDT time to prevent confusion due to time zone crossing. See the UAL33 flight status page for this flight to view local times or setup timezone preferences in your user account.


Time Position Orientation Groundspeed Altitude Reporting Facility
EDT Latitude Longitude Course Direction KTS MPH feet Rate Location/Type
Wed 07:04:55 AM 35.7760 140.3670 330° Northwest 176 203 1,200  Level FlightAware ADS-B
Wed 07:05:15 AM 35.7890 140.3580 331° Northwest 179 206 2,000 2,700 Climbing FlightAware ADS-B
Wed 07:05:35 AM 35.8050 140.3460 329° Northwest 181 208 3,000 2,550 Climbing FlightAware ADS-B
Wed 07:05:55 AM 35.8180 140.3370 331° Northwest 187 215 3,700 1,800 Climbing FlightAware ADS-B
Wed 07:06:15 AM 35.8350 140.3240 328° Northwest 212 244 4,200 1,800 Climbing FlightAware ADS-B
Wed 07:06:45 AM 35.8620 140.3050 330° Northwest 239 275 5,200 1,867 Climbing FlightAware ADS-B
Wed 07:07:00 AM 35.8760 140.2960 332° Northwest 258 297 5,600 2,400 Climbing FlightAware ADS-B
Wed 07:07:05 AM 35.8850 140.2940 350° North 258 297 6,000 3,600 Climbing FlightAware ADS-B
Wed 07:07:10 AM 35.8910 140.2930 352° North 259 298 6,200 2,880 Climbing FlightAware ADS-B
Wed 07:07:30 AM 35.9130 140.3000 14° North 266 306 7,200 3,120 Climbing FlightAware ADS-B
Wed 07:07:35 AM 35.9190 140.3060 39° Northeast 266 306 7,500 3,000 Climbing FlightAware ADS-B
Wed 07:07:40 AM 35.9230 140.3120 51° Northeast 271 312 7,700 2,800 Climbing FlightAware ADS-B
Wed 07:07:50 AM 35.9290 140.3250 60° Northeast 278 320 8,200 2,400 Climbing FlightAware ADS-B
Wed 07:07:55 AM 35.9310 140.3330 73° East 283 326 8,300 1,600 Climbing FlightAware ADS-B
Wed 07:08:05 AM 35.9320 140.3440 84° East 288 331 8,600 2,800 Climbing FlightAware ADS-B
Wed 07:08:25 AM 35.9230 140.3820 106° East 297 342 9,700 2,800 Climbing FlightAware ADS-B
Wed 07:08:50 AM 35.9060 140.4190 120° Southeast 315 362 10,700 1,754 Climbing FlightAware ADS-B
Wed 07:09:30 AM 35.8680 140.4820 127° Southeast 364 419 11,600 1,114 Climbing FlightAware ADS-B
Wed 07:10:00 AM 35.8360 140.5340 127° Southeast 398 458 12,000 1,200 Climbing FlightAware ADS-B
Wed 07:10:35 AM 35.7970 140.5990 126° Southeast 421 484 12,900 1,800 Climbing FlightAware ADS-B
Wed 07:11:00 AM 35.7660 140.6500 127° Southeast 434 499 13,800 1,703 Climbing FlightAware ADS-B
Wed 07:11:49 AM 35.7150 140.7450 123° Southeast 440 506 15,000 1,083 Climbing FlightAware ADS-B
Wed 07:12:12 AM 35.7030 140.8000 105° East 437 503 15,100 1,500 Climbing FlightAware ADS-B
Wed 07:12:45 AM 35.7050 140.8890 88° East 437 503 16,400 2,029 Climbing FlightAware ADS-B
Wed 07:13:20 AM 35.7120 140.9770 84° East 450 518 17,400 1,886 Climbing FlightAware ADS-B
Wed 07:13:55 AM 35.7210 141.0650 83° East 455 524 18,600 1,938 Climbing FlightAware ADS-B
Wed 07:14:25 AM 35.7430 141.1390 70° East 458 527 19,500 1,754 Climbing FlightAware ADS-B
Wed 07:15:00 AM 35.7730 141.2250 67° East 468 539 20,500 1,629 Climbing FlightAware ADS-B
Wed 07:15:35 AM 35.8030 141.3120 67° East 479 551 21,400 1,569 Climbing FlightAware ADS-B
Wed 07:16:05 AM 35.8290 141.3880 67° East 489 563 22,200 1,477 Climbing FlightAware ADS-B
Wed 07:16:40 AM 35.8600 141.4770 67° East 500 575 23,000 1,350 Climbing FlightAware ADS-B
Wed 07:17:25 AM 35.9010 141.5980 67° East 516 594 24,000 1,275 Climbing FlightAware ADS-B
Wed 07:18:00 AM 35.9300 141.6840 67° East 523 602 24,700 1,457 Climbing FlightAware ADS-B
Wed 07:18:35 AM 35.9670 141.7910 67° East 529 609 25,700 1,521 Climbing FlightAware ADS-B
Wed 07:19:11 AM 36.0020 141.8950 67° East 538 619 26,500 1,182 Climbing FlightAware ADS-B
Wed 07:19:41 AM 36.0310 141.9800 67° East 545 627 27,000 971 Climbing FlightAware ADS-B
Wed 07:20:19 AM 36.0660 142.0870 68° East 558 642 27,600 1,000 Climbing FlightAware ADS-B
Wed 07:20:59 AM 36.1060 142.2050 67° East 563 648 28,300 1,200 Climbing FlightAware ADS-B
Wed 07:21:29 AM 36.1370 142.2980 68° East 564 649 29,000 1,569 Climbing FlightAware ADS-B
Wed 07:22:04 AM 36.1710 142.4000 68° East 562 647 30,000 1,543 Climbing FlightAware ADS-B
Wed 07:22:39 AM 36.2050 142.5040 68° East 564 649 30,800 1,457 Climbing FlightAware ADS-B
Wed 07:23:14 AM 36.2400 142.6080 67° East 563 648 31,700 1,457 Climbing FlightAware ADS-B
Wed 07:23:49 AM 36.2740 142.7120 68° East 564 649 32,500 1,200 Climbing FlightAware ADS-B
Wed 07:24:24 AM 36.3090 142.8180 68° East 566 651 33,100 943 Climbing FlightAware ADS-B
Wed 07:24:59 AM 36.3420 142.9200 68° East 572 658 33,600 943 Climbing FlightAware ADS-B
Wed 07:25:34 AM 36.3780 143.0300 68° East 576 663 34,200 880 Climbing FlightAware ADS-B
Wed 07:26:14 AM 36.4160 143.1480 68° East 579 666 34,700 857 Climbing FlightAware ADS-B
Wed 07:26:44 AM 36.4480 143.2450 68° East 581 669 35,200 1,015 Climbing FlightAware ADS-B
Wed 07:27:19 AM 36.4830 143.3550 68° East 581 669 35,800 1,040 Climbing FlightAware ADS-B
Wed 07:27:59 AM 36.5230 143.4800 68° East 582 670 36,500 985 Climbing FlightAware ADS-B
Wed 07:28:26 AM 36.5470 143.5540 68° East 581 669 36,900 538 Climbing FlightAware ADS-B
Wed 07:29:17 AM 36.5930 143.6960 68° East 581 669 37,200 405 Climbing FlightAware ADS-B
Wed 07:30:39 AM 36.6770 143.9650 69° East 38,000 429 Climbing FlightAware ADS-B
Wed 07:31:09 AM 36.7090 144.0640 68° East 574 661 38,000  Level FlightAware ADS-B
Wed 07:31:46 AM 36.7380 144.1560 69° East 574 661 38,000  Level FlightAware ADS-B
Wed 07:32:19 AM 36.7770 144.2820 69° East 575 662 38,000  Level FlightAware ADS-B
Wed 07:32:54 AM 36.8080 144.3810 69° East 576 663 38,000  Level FlightAware ADS-B
Wed 07:33:44 AM 36.8520 144.5270 69° East 576 663 38,000  Level FlightAware ADS-B
Wed 07:34:24 AM 36.8900 144.6480 69° East 577 664 38,000  Level FlightAware ADS-B
Wed 07:35:00 AM 36.9190 144.7440 69° East 577 664 38,000  Level FlightAware ADS-B
Wed 07:35:34 AM 36.9620 144.8840 69° East 574 661 38,000  Level FlightAware ADS-B
Wed 07:36:16 AM 36.9980 145.0040 69° East 574 661 38,000  Level FlightAware ADS-B
Wed 07:36:52 AM 37.0260 145.1000 70° East 574 661 38,000  Level FlightAware ADS-B
Wed 07:37:28 AM 37.0530 145.1950 70° East 574 661 38,000  Level FlightAware ADS-B
Wed 07:38:04 AM 37.0810 145.2910 70° East 574 661 38,000  Level FlightAware ADS-B
Wed 07:38:40 AM 37.1090 145.3870 70° East 574 661 38,000  Level FlightAware ADS-B
Wed 07:39:16 AM 37.1370 145.4820 70° East 574 661 38,000  Level FlightAware ADS-B
Wed 07:39:52 AM 37.1640 145.5780 71° East 574 661 38,000  Level FlightAware ADS-B
Wed 07:40:28 AM 37.1920 145.6740 70° East 574 661 38,000  Level FlightAware ADS-B
Wed 07:41:05 AM 37.2210 145.7730 70° East 574 661 38,000  Level FlightAware ADS-B
Wed 07:41:41 AM 37.2490 145.8690 70° East 574 661 38,000  Level FlightAware ADS-B
Wed 07:42:17 AM 37.2760 145.9640 70° East 574 661 38,000  Level FlightAware ADS-B
Wed 07:42:54 AM 37.3050 146.0630 70° East 574 661 38,000  Level FlightAware ADS-B
Wed 07:43:30 AM 37.3330 146.1590 70° East 574 661 38,000  Level FlightAware ADS-B
Wed 07:44:06 AM 37.3600 146.2550 70° East 574 661 38,000  Level FlightAware ADS-B
Wed 07:44:42 AM 37.3880 146.3510 70° East 574 661 38,000  Level FlightAware ADS-B
Wed 07:45:18 AM 37.4160 146.4470 70° East 574 661 38,000  Level FlightAware ADS-B
Wed 07:47:00 AM 37.5460 146.7248 59° Northeast  Level Estimated
Wed 07:48:00 AM 37.6221 146.8887 60° Northeast  Level Estimated
Wed 07:49:00 AM 37.6980 147.0529 60° Northeast  Level Estimated
Wed 07:50:00 AM 37.7737 147.2175 60° Northeast  Level Estimated
Wed 07:51:00 AM 37.8492 147.3824 60° Northeast  Level Estimated
Wed 07:52:00 AM 37.9244 147.5476 60° Northeast  Level Estimated
Wed 07:53:00 AM 37.9994 147.7132 60° Northeast  Level Estimated
Wed 07:54:00 AM 38.0742 147.8791 60° Northeast  Level Estimated
Wed 07:55:00 AM 38.1487 148.0453 60° Northeast  Level Estimated
Wed 07:56:00 AM 38.2230 148.2119 60° Northeast  Level Estimated
Wed 07:57:00 AM 38.2970 148.3788 60° Northeast  Level Estimated
Wed 07:58:00 AM 38.3708 148.5461 61° Northeast  Level Estimated
Wed 07:59:00 AM 38.4444 148.7137 61° Northeast  Level Estimated
Wed 08:00:00 AM 38.5178 148.8817 61° Northeast  Level Estimated
Wed 08:01:00 AM 38.5909 149.0499 61° Northeast  Level Estimated
Wed 08:02:00 AM 38.6637 149.2186 61° Northeast  Level Estimated
Wed 08:03:00 AM 38.7364 149.3875 61° Northeast  Level Estimated
Wed 08:04:00 AM 38.8087 149.5569 61° Northeast  Level Estimated
Wed 08:05:00 AM 38.8809 149.7265 61° Northeast  Level Estimated
Wed 08:06:00 AM 38.9528 149.8965 61° Northeast  Level Estimated
Wed 08:07:00 AM 39.0244 150.0669 62° Northeast  Level Estimated
Wed 08:08:00 AM 39.0958 150.2376 62° Northeast  Level Estimated
Wed 08:09:00 AM 39.1669 150.4086 62° Northeast  Level Estimated
Wed 08:10:00 AM 39.2378 150.5800 62° Northeast  Level Estimated
Wed 08:11:00 AM 39.3084 150.7517 62° Northeast  Level Estimated
Wed 08:12:00 AM 39.3788 150.9238 62° Northeast  Level Estimated
Wed 08:13:00 AM 39.4490 151.0963 62° Northeast  Level Estimated
Wed 08:14:00 AM 39.5188 151.2690 62° Northeast  Level Estimated
Wed 08:15:00 AM 39.5885 151.4421 62° Northeast  Level Estimated
Wed 08:16:00 AM 39.6578 151.6156 63° Northeast  Level Estimated
Wed 08:17:00 AM 39.7269 151.7894 63° Northeast  Level Estimated
Wed 08:18:00 AM 39.7958 151.9636 63° Northeast  Level Estimated
Wed 08:19:00 AM 39.8643 152.1381 63° Northeast  Level Estimated
Wed 08:20:00 AM 39.9327 152.3130 63° Northeast  Level Estimated
Wed 08:21:00 AM 40.0007 152.4882 63° Northeast  Level Estimated
Wed 08:22:00 AM 40.0685 152.6637 63° Northeast  Level Estimated
Wed 08:23:00 AM 40.1361 152.8396 63° Northeast  Level Estimated
Wed 08:24:00 AM 40.2033 153.0159 63° Northeast  Level Estimated
Wed 08:25:00 AM 40.2703 153.1925 64° Northeast  Level Estimated
Wed 08:26:00 AM 40.3370 153.3695 64° Northeast  Level Estimated
Wed 08:27:00 AM 40.4035 153.5468 64° Northeast  Level Estimated
Wed 08:28:00 AM 40.4697 153.7244 64° Northeast  Level Estimated
Wed 08:29:00 AM 40.5356 153.9025 64° Northeast  Level Estimated
Wed 08:30:00 AM 40.6012 154.0808 64° Northeast  Level Estimated
Wed 08:31:00 AM 40.6666 154.2595 64° Northeast  Level Estimated
Wed 08:32:00 AM 40.7317 154.4386 64° Northeast  Level Estimated
Wed 08:33:00 AM 40.7965 154.6180 64° Northeast  Level Estimated
Wed 08:34:00 AM 40.8610 154.7977 65° Northeast  Level Estimated
Wed 08:35:00 AM 40.9252 154.9778 65° Northeast  Level Estimated
Wed 08:36:00 AM 40.9892 155.1583 65° Northeast  Level Estimated
Wed 08:37:00 AM 41.0529 155.3391 65° Northeast  Level Estimated
Wed 08:38:00 AM 41.1163 155.5202 65° Northeast  Level Estimated
Wed 08:39:00 AM 41.1794 155.7017 65° Northeast  Level Estimated
Wed 08:40:00 AM 41.2423 155.8836 65° Northeast  Level Estimated
Wed 08:41:00 AM 41.3048 156.0658 65° Northeast  Level Estimated
Wed 08:42:00 AM 41.3671 156.2483 66° East  Level Estimated
Wed 08:43:00 AM 41.4291 156.4312 66° East  Level Estimated
Wed 08:44:00 AM 41.4907 156.6145 66° East  Level Estimated
Wed 08:45:00 AM 41.5521 156.7981 66° East  Level Estimated
Wed 08:46:00 AM 41.6132 156.9820 66° East  Level Estimated
Wed 08:47:00 AM 41.6740 157.1663 66° East  Level Estimated
Wed 08:48:00 AM 41.7345 157.3510 66° East  Level Estimated
Wed 08:49:00 AM 41.7947 157.5359 66° East  Level Estimated
Wed 08:50:00 AM 41.8547 157.7213 66° East  Level Estimated
Wed 08:51:00 AM 41.9143 157.9070 67° East  Level Estimated
Wed 08:52:00 AM 41.9736 158.0930 67° East  Level Estimated
Wed 08:53:00 AM 42.0326 158.2794 67° East  Level Estimated
Wed 08:54:00 AM 42.0913 158.4661 67° East  Level Estimated
Wed 08:55:00 AM 42.1497 158.6531 67° East  Level Estimated
Wed 08:56:00 AM 42.2079 158.8405 67° East  Level Estimated
Wed 08:57:00 AM 42.2657 159.0283 67° East  Level Estimated
Wed 08:58:00 AM 42.3231 159.2164 67° East  Level Estimated
Wed 08:59:00 AM 42.3803 159.4048 68° East  Level Estimated
Wed 09:00:00 AM 42.4372 159.5936 68° East  Level Estimated
Wed 09:01:00 AM 42.4938 159.7827 68° East  Level Estimated
Wed 09:02:00 AM 42.5500 159.9722 68° East  Level Estimated
Wed 09:03:00 AM 42.6060 160.1620 68° East  Level Estimated
Wed 09:04:00 AM 42.6616 160.3522 68° East  Level Estimated
Wed 09:05:00 AM 42.7169 160.5427 68° East  Level Estimated
Wed 09:06:00 AM 42.7719 160.7335 69° East  Level Estimated
Wed 09:07:00 AM 42.8266 160.9247 69° East  Level Estimated
Wed 09:08:00 AM 42.8810 161.1162 69° East  Level Estimated
Wed 09:09:00 AM 42.9350 161.3080 69° East  Level Estimated
Wed 09:10:00 AM 42.9887 161.5002 69° East  Level Estimated
Wed 09:11:00 AM 43.0421 161.6927 69° East  Level Estimated
Wed 09:12:00 AM 43.0952 161.8855 69° East  Level Estimated
Wed 09:13:00 AM 43.1479 162.0787 69° East  Level Estimated
Wed 09:14:00 AM 43.2004 162.2722 70° East  Level Estimated
Wed 09:15:00 AM 43.2525 162.4660 70° East  Level Estimated
Wed 09:15:16 AM 47.5500 161.3333 55° Northeast 592 681 38,000  Level Anchorage Center
Wed 09:16:00 AM 43.3042 162.6602 70° East  Level Estimated
Wed 09:17:00 AM 43.3557 162.8547 70° East  Level Estimated
Wed 09:18:00 AM 43.4068 163.0495 70° East  Level Estimated
Wed 09:19:00 AM 43.4576 163.2447 70° East  Level Estimated
Wed 09:19:53 AM 48.0000 162.3000 55° Northeast 590 679 38,000  Level Anchorage Center
Wed 09:20:00 AM 43.5080 163.4402 70° East  Level Estimated
Wed 09:21:00 AM 48.0874 162.4745 55° Northeast 592 681 38,000  Level FlightAware Transoceanic
Wed 09:22:00 AM 48.1759 162.6671 56° Northeast 592 681 38,000  Level FlightAware Transoceanic
Wed 09:23:00 AM 48.2641 162.8602 56° Northeast 592 681 38,000  Level FlightAware Transoceanic
Wed 09:24:00 AM 48.3519 163.0541 56° Northeast 592 681 38,000  Level FlightAware Transoceanic
Wed 09:25:00 AM 48.4394 163.2486 56° Northeast 592 681 38,000  Level FlightAware Transoceanic
Wed 09:26:00 AM 48.5275 163.4588 56° Northeast 590 679 38,000  Level FlightAware Transoceanic
Wed 09:27:00 AM 48.6143 163.6543 56° Northeast 590 679 38,000  Level FlightAware Transoceanic
Wed 09:28:00 AM 48.7008 163.8504 56° Northeast 590 679 38,000  Level FlightAware Transoceanic
Wed 09:29:00 AM 48.7869 164.0473 57° Northeast 590 679 38,000  Level FlightAware Transoceanic
Wed 09:29:29 AM 48.8833 164.2500 57° Northeast 590 679 38,000  Level Anchorage Center
Wed 09:30:00 AM 48.8727 164.2448 57° Northeast 590 679 38,000  Level FlightAware Transoceanic
Wed 09:31:00 AM 48.9581 164.4429 57° Northeast 590 679 38,000  Level FlightAware Transoceanic
Wed 09:32:00 AM 49.0432 164.6418 57° Northeast 590 679 38,000  Level FlightAware Transoceanic
Wed 09:33:00 AM 49.1279 164.8413 57° Northeast 590 679 38,000  Level FlightAware Transoceanic
Wed 09:34:00 AM 49.2124 165.0415 57° Northeast 590 679 38,000  Level FlightAware Transoceanic
Wed 09:35:00 AM 49.3741 165.4129 58° Northeast 590 679 38,000  Level FlightAware Transoceanic
Wed 09:36:00 AM 49.4548 165.6090 58° Northeast 590 679 38,000  Level FlightAware Transoceanic
Wed 09:37:00 AM 49.5351 165.8057 58° Northeast 590 679 38,000  Level FlightAware Transoceanic
Wed 09:38:00 AM 49.6151 166.0031 58° Northeast 590 679 38,000  Level FlightAware Transoceanic
Wed 09:39:00 AM 49.6948 166.2011 58° Northeast 590 679 38,000  Level FlightAware Transoceanic
Wed 09:40:00 AM 49.7741 166.3997 58° Northeast 590 679 38,000  Level FlightAware Transoceanic
Wed 09:41:00 AM 49.8531 166.5990 59° Northeast 590 679 38,000  Level FlightAware Transoceanic
Wed 09:42:00 AM 49.9317 166.7990 59° Northeast 590 679 38,000  Level FlightAware Transoceanic
Wed 09:43:00 AM 50.0100 166.9996 59° Northeast 590 679 38,000  Level FlightAware Transoceanic
Wed 09:44:00 AM 50.0879 167.2009 59° Northeast 590 679 38,000  Level FlightAware Transoceanic
Wed 09:45:00 AM 50.1655 167.4028 59° Northeast 590 679 38,000  Level FlightAware Transoceanic
Wed 09:46:00 AM 50.2427 167.6053 59° Northeast 590 679 38,000  Level FlightAware Transoceanic
Wed 09:47:00 AM 50.3196 167.8086 59° Northeast 590 679 38,000  Level FlightAware Transoceanic
Wed 09:48:00 AM 50.3961 168.0125 60° Northeast 590 679 38,000  Level FlightAware Transoceanic
Wed 09:49:00 AM 50.4723 168.2170 60° Northeast 590 679 38,000  Level FlightAware Transoceanic
Wed 09:50:00 AM 50.5481 168.4222 60° Northeast 590 679 38,000  Level FlightAware Transoceanic
Wed 09:50:10 AM 50.6500 168.7333 61° Northeast 610 702 38,000  Level Anchorage Center
Wed 09:51:00 AM 50.6236 168.6281 60° Northeast 590 679 38,000  Level FlightAware Transoceanic
Wed 09:51:10 AM 50.7333 168.9333 57° Northeast 600 690 38,000  Level Anchorage Center
Wed 09:52:00 AM 50.6987 168.8346 60° Northeast 590 679 38,000  Level FlightAware Transoceanic
Wed 09:52:10 AM 50.8167 169.1833 62° Northeast 610 702 38,000  Level Anchorage Center
Wed 09:53:00 AM 50.7734 169.0417 60° Northeast 590 679 38,000  Level FlightAware Transoceanic
Wed 09:53:10 AM 50.8833 169.3833 62° Northeast 620 713 38,000  Level Anchorage Center
Wed 09:54:00 AM 50.8478 169.2496 61° Northeast 590 679 38,000  Level FlightAware Transoceanic
Wed 09:54:10 AM 50.9833 169.6500 59° Northeast 610 702 38,000  Level Anchorage Center
Wed 09:55:00 AM 50.9217 169.4581 61° Northeast 590 679 38,000  Level FlightAware Transoceanic
Wed 09:55:10 AM 51.0667 169.9000 62° Northeast 620 713 38,000  Level Anchorage Center
Wed 09:56:10 AM 51.1500 170.1000 56° Northeast 610 702 38,000  Level Anchorage Center
Wed 09:57:10 AM 51.2333 170.3500 62° Northeast 620 713 38,000  Level Anchorage Center
Wed 09:58:11 AM 51.3000 170.5667 64° Northeast 620 713 38,000  Level Anchorage Center
Wed 09:59:10 AM 51.3833 170.8333 63° Northeast 610 702 38,000  Level Anchorage Center
Wed 10:00:11 AM 51.4667 171.0333 56° Northeast 610 702 38,000  Level Anchorage Center
Wed 10:01:11 AM 51.5167 171.3000 73° East 580 667 38,000  Level Anchorage Center
Wed 10:02:11 AM 51.5333 171.6000 85° East 600 690 38,000  Level Anchorage Center
Wed 10:03:11 AM 51.5500 171.8333 83° East 600 690 38,000  Level Anchorage Center
Wed 10:04:11 AM 51.5833 172.1167 79° East 590 679 38,000  Level Anchorage Center
Wed 10:05:11 AM 51.6000 172.3500 83° East 610 702 38,000  Level Anchorage Center
Wed 10:06:11 AM 51.6333 172.6333 79° East 600 690 38,000  Level Anchorage Center
Wed 10:07:11 AM 51.6500 172.8667 83° East 600 690 38,000  Level Anchorage Center
Wed 10:08:11 AM 51.6667 173.1500 84° East 600 690 38,000  Level Anchorage Center
Wed 10:09:11 AM 51.6833 173.4333 84° East 610 702 38,000  Level Anchorage Center
Wed 10:10:11 AM 51.7000 173.6667 83° East 600 690 38,000  Level Anchorage Center
Wed 10:11:11 AM 51.7333 173.9500 79° East 590 679 38,000  Level Anchorage Center
Wed 10:12:12 AM 51.7500 174.1833 83° East 590 679 38,000  Level Anchorage Center
Wed 10:13:12 AM 51.7667 174.4833 85° East 590 679 38,000  Level Anchorage Center
Wed 10:14:12 AM 51.7833 174.7000 83° East 590 679 38,000  Level Anchorage Center
Wed 10:15:11 AM 51.8000 175.0000 85° East 600 690 38,000  Level Anchorage Center
Wed 10:16:12 AM 51.8167 175.2833 84° East 600 690 38,000  Level Anchorage Center
Wed 10:17:12 AM 51.8167 175.5167 90° East 600 690 38,000 500 Level Anchorage Center
Wed 10:18:12 AM 51.8500 175.8167 80° East 600 690 39,000 500 Climbing Anchorage Center
Wed 10:19:12 AM 51.8500 176.0500 90° East 590 679 39,000  Level Anchorage Center
Wed 10:20:12 AM 51.8667 176.3333 84° East 600 690 39,000  Level Anchorage Center
Wed 10:21:12 AM 51.8833 176.5667 83° East 600 690 39,000  Level Anchorage Center
Wed 10:22:12 AM 51.9000 176.8500 84° East 590 679 39,000  Level Anchorage Center
Wed 10:23:12 AM 51.9167 177.1500 85° East 610 702 39,000  Level Anchorage Center
Wed 10:24:12 AM 51.9167 177.3833 90° East 600 690 39,000  Level Anchorage Center
Wed 10:25:13 AM 51.9333 177.6667 84° East 590 679 39,000  Level Anchorage Center
Wed 10:26:12 AM 51.9333 177.9167 90° East 600 690 39,000  Level Anchorage Center
Wed 10:27:13 AM 51.9500 178.2000 84° East 610 702 39,000  Level Anchorage Center
Wed 10:28:13 AM 51.9500 178.4333 90° East 600 690 39,000  Level Anchorage Center
Wed 10:29:13 AM 51.9667 178.7333 85° East 600 690 39,000  Level Anchorage Center
Wed 10:30:13 AM 51.9667 179.0333 90° East 590 679 39,000  Level Anchorage Center
Wed 10:31:13 AM 51.9833 179.2667 83° East 600 690 39,000  Level Anchorage Center
Wed 10:32:13 AM 51.9833 179.5500 90° East 600 690 39,000  Level Anchorage Center
Wed 10:33:13 AM 51.9833 179.8000 90° East 590 679 39,000  Level Anchorage Center
Wed 10:34:13 AM 51.9833 -179.9000 90° East 600 690 39,000  Level Anchorage Center
Wed 10:35:13 AM 52.0000 -179.6500 84° East 600 690 39,000  Level Anchorage Center
Wed 10:36:13 AM 52.0167 -179.3667 84° East 610 702 39,000  Level Anchorage Center
Wed 10:39:00 AM 52.0282 -178.9302 87° East  Level FlightAware Approximate
Wed 10:46:00 AM 52.0580 -177.1989 88° East  Level FlightAware Approximate
Wed 10:46:12 AM 52.1000 -176.6500 89° East 601 692 39,000  Level Anchorage Center
Wed 10:47:00 AM 52.0602 -176.9514 89° East  Level FlightAware Approximate
Wed 10:48:00 AM 52.0619 -176.7039 89° East  Level FlightAware Approximate
Wed 10:49:00 AM 52.0631 -176.4564 89° East  Level FlightAware Approximate
Wed 10:50:00 AM 52.0637 -176.2089 90° East  Level FlightAware Approximate
Wed 10:51:00 AM 52.0638 -175.9614 90° East  Level FlightAware Approximate
Wed 10:52:00 AM 52.1102 -175.0522 90° East 601 692 39,000  Level FlightAware Transoceanic
Wed 10:53:00 AM 52.1098 -174.7858 90° East 601 692 39,000  Level FlightAware Transoceanic
Wed 10:54:00 AM 52.1087 -174.5195 90° East 601 692 39,000  Level FlightAware Transoceanic
Wed 10:55:00 AM 52.1072 -174.2532 91° East 601 692 39,000  Level FlightAware Transoceanic
Wed 10:55:49 AM 52.1000 -174.0500 91° East 602 693 39,000  Level Anchorage Center
Wed 10:56:00 AM 52.1049 -173.9869 91° East 601 692 39,000  Level FlightAware Transoceanic
Wed 10:57:00 AM 52.1021 -173.7206 91° East 601 692 39,000  Level FlightAware Transoceanic
Wed 10:58:00 AM 52.0987 -173.4544 91° East 601 692 39,000  Level FlightAware Transoceanic
Wed 10:59:00 AM 52.0947 -173.1882 92° East 601 692 39,000  Level FlightAware Transoceanic
Wed 11:00:00 AM 52.0901 -172.9220 92° East 601 692 39,000  Level FlightAware Transoceanic
Wed 11:01:00 AM 52.0849 -172.6560 92° East 601 692 39,000  Level FlightAware Transoceanic
Wed 11:02:00 AM 52.0767 -172.4279 92° East 602 693 39,000  Level FlightAware Transoceanic
Wed 11:03:00 AM 52.0706 -172.1578 92° East 602 693 39,000  Level FlightAware Transoceanic
Wed 11:04:00 AM 52.0639 -171.8877 92° East 602 693 39,000  Level FlightAware Transoceanic
Wed 11:05:00 AM 52.0567 -171.6177 93° East 602 693 39,000  Level FlightAware Transoceanic
Wed 11:05:25 AM 52.0500 -171.4500 93° East 595 685 39,000  Level Anchorage Center
Wed 11:06:00 AM 52.0488 -171.3478 93° East 602 693 39,000  Level FlightAware Transoceanic
Wed 11:07:00 AM 52.0402 -171.0780 93° East 602 693 39,000  Level FlightAware Transoceanic
Wed 11:08:00 AM 52.0311 -170.8083 93° East 602 693 39,000  Level FlightAware Transoceanic
Wed 11:09:00 AM 52.0214 -170.5388 93° East 602 693 39,000  Level FlightAware Transoceanic
Wed 11:10:00 AM 52.0110 -170.2693 94° East 602 693 39,000  Level FlightAware Transoceanic
Wed 11:11:00 AM 52.0000 -170.0000 95° East 595 685 39,000  Level FlightAware Transoceanic
Wed 11:11:02 AM 52.0000 -170.0000 95° East 592 681 39,000  Level Anchorage Center
Wed 11:12:00 AM 51.9859 -169.7515 95° East 595 685 39,000  Level FlightAware Transoceanic
Wed 11:13:00 AM 51.9712 -169.5032 96° East 595 685 39,000  Level FlightAware Transoceanic
Wed 11:14:00 AM 51.9560 -169.2551 96° East 595 685 39,000  Level FlightAware Transoceanic
Wed 11:15:00 AM 51.9403 -169.0071 96° East 595 685 39,000  Level FlightAware Transoceanic
Wed 11:15:00 AM 51.9333 -168.9000 96° East 589 678 39,000  Level Anchorage Center
Wed 11:16:00 AM 51.9240 -168.7593 96° East 595 685 39,000  Level FlightAware Transoceanic
Wed 11:17:00 AM 51.8992 -168.3945 96° East 592 681 39,000  Level FlightAware Transoceanic
Wed 11:18:00 AM 51.8802 -168.1276 97° East 592 681 39,000  Level FlightAware Transoceanic
Wed 11:19:00 AM 51.8607 -167.8610 97° East 592 681 39,000  Level FlightAware Transoceanic
Wed 11:20:00 AM 51.8406 -167.5946 97° East 592 681 39,000  Level FlightAware Transoceanic
Wed 11:21:00 AM 51.8180 -167.3048 97° East 589 678 39,000  Level FlightAware Transoceanic
Wed 11:22:00 AM 51.7967 -167.0398 98° East 589 678 39,000  Level FlightAware Transoceanic
Wed 11:23:00 AM 51.7747 -166.7750 98° East 589 678 39,000  Level FlightAware Transoceanic
Wed 11:24:00 AM 51.7522 -166.5105 98° East 589 678 39,000  Level FlightAware Transoceanic
Wed 11:25:00 AM 51.7291 -166.2462 98° East 589 678 39,000  Level FlightAware Transoceanic
Wed 11:26:00 AM 51.7054 -165.9822 98° East 589 678 39,000  Level FlightAware Transoceanic
Wed 11:27:00 AM 51.6812 -165.7185 99° East 589 678 39,000  Level FlightAware Transoceanic
Wed 11:28:00 AM 51.6563 -165.4551 99° East 589 678 39,000  Level FlightAware Transoceanic
Wed 11:29:00 AM 51.6308 -165.1920 99° East 589 678 39,000  Level FlightAware Transoceanic
Wed 11:30:00 AM 51.6048 -164.9291 99° East 589 678 39,000  Level FlightAware Transoceanic
Wed 11:31:00 AM 51.5782 -164.6666 99° East 589 678 39,000  Level FlightAware Transoceanic
Wed 11:32:00 AM 51.5509 -164.4044 100° East 589 678 39,000  Level FlightAware Transoceanic
Wed 11:33:00 AM 51.5231 -164.1425 100° East 589 678 39,000  Level FlightAware Transoceanic
Wed 11:34:00 AM 51.4947 -163.8809 100° East 589 678 39,000  Level FlightAware Transoceanic
Wed 11:35:00 AM 51.4658 -163.6197 100° East 589 678 39,000  Level FlightAware Transoceanic
Wed 11:35:53 AM 51.4667 -163.6333 100° East 567 652 39,000  Level Oakland Oceanic (ODAPS)
Wed 11:36:00 AM 51.4362 -163.3588 100° East 589 678 39,000  Level FlightAware Transoceanic
Wed 11:37:00 AM 51.4061 -163.0982 101° East 589 678 39,000  Level FlightAware Transoceanic
Wed 11:38:00 AM 51.3754 -162.8380 101° East 589 678 39,000  Level FlightAware Transoceanic
Wed 11:39:00 AM 51.3441 -162.5781 101° East 589 678 39,000  Level FlightAware Transoceanic
Wed 11:40:00 AM 51.3123 -162.3186 101° East 589 678 39,000  Level FlightAware Transoceanic
Wed 11:41:00 AM 51.2798 -162.0595 101° East 589 678 39,000  Level FlightAware Transoceanic
Wed 11:42:00 AM 51.2629 -161.9286 102° East 567 652 39,000  Level FlightAware Transoceanic
Wed 11:43:00 AM 51.2318 -161.6864 102° East 567 652 39,000  Level FlightAware Transoceanic
Wed 11:44:00 AM 51.2001 -161.4444 102° East 567 652 39,000  Level FlightAware Transoceanic
Wed 11:45:00 AM 51.1680 -161.2028 102° East 567 652 39,000  Level FlightAware Transoceanic
Wed 11:46:00 AM 51.1354 -160.9616 102° East 567 652 39,000  Level FlightAware Transoceanic
Wed 11:47:00 AM 51.1023 -160.7207 102° East 567 652 39,000  Level FlightAware Transoceanic
Wed 11:48:00 AM 51.0687 -160.4801 103° East 567 652 39,000  Level FlightAware Transoceanic
Wed 11:49:00 AM 51.0346 -160.2399 103° East 567 652 39,000  Level FlightAware Transoceanic
Wed 11:50:00 AM 51.0000 -160.0000 103° East 567 652 39,000  Level FlightAware Transoceanic
Wed 11:50:09 AM 51.0333 -160.2833 100° East 547 629 39,000  Level Oakland Oceanic (ODAPS)
Wed 11:50:38 AM 51.0000 -160.0000 103° East 555 639 39,000  Level Oakland Oceanic (ODAPS)
Wed 11:51:00 AM 50.9666 -159.7790 104° East 567 652 39,000  Level FlightAware Transoceanic
Wed 11:52:00 AM 50.9328 -159.5583 104° East 567 652 39,000  Level FlightAware Transoceanic
Wed 11:53:00 AM 50.8986 -159.3379 104° East 567 652 39,000  Level FlightAware Transoceanic
Wed 11:54:00 AM 50.8640 -159.1178 104° East 567 652 39,000  Level FlightAware Transoceanic
Wed 11:55:00 AM 50.8289 -158.8981 104° East 567 652 39,000  Level FlightAware Transoceanic
Wed 11:56:00 AM 50.7788 -158.5890 105° East 555 639 39,000  Level FlightAware Transoceanic
Wed 11:57:00 AM 50.7403 -158.3552 105° East 555 639 39,000  Level FlightAware Transoceanic
Wed 11:58:00 AM 50.7014 -158.1217 105° East 555 639 39,000  Level FlightAware Transoceanic
Wed 11:59:00 AM 50.6619 -157.8886 105° East 555 639 39,000  Level FlightAware Transoceanic
Wed 12:00:00 PM 50.6220 -157.6560 105° East 555 639 39,000  Level FlightAware Transoceanic
Wed 12:01:00 PM 50.5816 -157.4237 105° East 555 639 39,000  Level FlightAware Transoceanic
Wed 12:02:00 PM 50.5408 -157.1918 106° East 555 639 39,000  Level FlightAware Transoceanic
Wed 12:03:00 PM 50.4995 -156.9603 106° East 555 639 39,000  Level FlightAware Transoceanic
Wed 12:03:13 PM 50.5167 -157.0500 106° East 554 638 39,000  Level Oakland Oceanic (ODAPS)
Wed 12:04:00 PM 50.4578 -156.7293 106° East 555 639 39,000  Level FlightAware Transoceanic
Wed 12:05:00 PM 50.4156 -156.4986 106° East 555 639 39,000  Level FlightAware Transoceanic
Wed 12:06:00 PM 50.3729 -156.2684 106° East 555 639 39,000  Level FlightAware Transoceanic
Wed 12:07:00 PM 50.3298 -156.0385 106° East 555 639 39,000  Level FlightAware Transoceanic
Wed 12:08:00 PM 50.2862 -155.8091 107° East 555 639 39,000  Level FlightAware Transoceanic
Wed 12:09:00 PM 50.2569 -155.6516 107° East 554 638 39,000  Level FlightAware Transoceanic
Wed 12:10:00 PM 50.2120 -155.4201 107° East 554 638 39,000  Level FlightAware Transoceanic
Wed 12:11:00 PM 50.1666 -155.1890 107° East 554 638 39,000  Level FlightAware Transoceanic
Wed 12:12:00 PM 50.1208 -154.9583 107° East 554 638 39,000  Level FlightAware Transoceanic
Wed 12:13:00 PM 50.0745 -154.7280 107° East 554 638 39,000  Level FlightAware Transoceanic
Wed 12:14:00 PM 50.0277 -154.4983 108° East 554 638 39,000  Level FlightAware Transoceanic
Wed 12:15:00 PM 49.9805 -154.2689 108° East 554 638 39,000  Level FlightAware Transoceanic
Wed 12:16:00 PM 49.9329 -154.0400 108° East 554 638 39,000  Level FlightAware Transoceanic
Wed 12:17:00 PM 49.8848 -153.8116 108° East 554 638 39,000  Level FlightAware Transoceanic
Wed 12:17:07 PM 49.9167 -153.9500 108° East 537 618 39,000  Level Oakland Oceanic (ODAPS)
Wed 12:18:00 PM 49.8363 -153.5836 108° East 554 638 39,000  Level FlightAware Transoceanic
Wed 12:19:00 PM 49.7873 -153.3561 109° East 554 638 39,000  Level FlightAware Transoceanic
Wed 12:20:00 PM 49.7378 -153.1290 109° East 554 638 39,000  Level FlightAware Transoceanic
Wed 12:21:00 PM 49.6880 -152.9025 109° East 554 638 39,000  Level FlightAware Transoceanic
Wed 12:22:00 PM 49.6376 -152.6763 109° East 554 638 39,000  Level FlightAware Transoceanic
Wed 12:23:00 PM 49.6261 -152.6170 109° East 537 618 39,000  Level FlightAware Transoceanic
Wed 12:24:00 PM 49.5762 -152.3964 109° East 537 618 39,000  Level FlightAware Transoceanic
Wed 12:25:00 PM 49.5259 -152.1762 109° East 537 618 39,000  Level FlightAware Transoceanic
Wed 12:26:00 PM 49.4752 -151.9565 110° East 537 618 39,000  Level FlightAware Transoceanic
Wed 12:27:00 PM 49.4240 -151.7373 110° East 537 618 39,000  Level FlightAware Transoceanic
Wed 12:28:00 PM 49.3724 -151.5185 110° East 537 618 39,000  Level FlightAware Transoceanic
Wed 12:29:00 PM 49.3204 -151.3002 110° East 537 618 39,000  Level FlightAware Transoceanic
Wed 12:30:00 PM 49.2681 -151.0823 110° East 537 618 39,000  Level FlightAware Transoceanic
Wed 12:30:58 PM 49.2500 -151.0000 111° Southeast 525 604 39,000  Level Oakland Oceanic (ODAPS)
Wed 12:31:00 PM 49.2152 -150.8649 110° East 537 618 39,000  Level FlightAware Transoceanic
Wed 12:32:00 PM 49.1620 -150.6480 111° Southeast 537 618 39,000  Level FlightAware Transoceanic
Wed 12:33:00 PM 49.1084 -150.4315 111° Southeast 537 618 39,000  Level FlightAware Transoceanic
Wed 12:34:00 PM 49.0544 -150.2155 111° Southeast 537 618 39,000  Level FlightAware Transoceanic
Wed 12:35:00 PM 49.0000 -150.0000 110° East 537 618 39,000  Level FlightAware Transoceanic
Wed 12:35:47 PM 49.0000 -150.0000 110° East 533 613 39,000  Level Oakland Oceanic (ODAPS)
Wed 12:36:00 PM 48.9517 -149.8009 110° East 537 618 39,000  Level FlightAware Transoceanic
Wed 12:37:00 PM 48.9508 -149.7970 110° East 525 604 39,000  Level FlightAware Transoceanic
Wed 12:38:00 PM 48.9012 -149.5945 111° Southeast 525 604 39,000  Level FlightAware Transoceanic
Wed 12:39:00 PM 48.8513 -149.3923 111° Southeast 525 604 39,000  Level FlightAware Transoceanic
Wed 12:40:00 PM 48.8011 -149.1906 111° Southeast 525 604 39,000  Level FlightAware Transoceanic
Wed 12:41:00 PM 48.7504 -148.9893 111° Southeast 525 604 39,000  Level FlightAware Transoceanic
Wed 12:42:00 PM 48.6872 -148.7402 111° Southeast 533 613 39,000  Level FlightAware Transoceanic
Wed 12:43:00 PM 48.6337 -148.5317 111° Southeast 533 613 39,000  Level FlightAware Transoceanic
Wed 12:44:00 PM 48.5799 -148.3237 111° Southeast 533 613 39,000  Level FlightAware Transoceanic
Wed 12:44:58 PM 48.5333 -148.1500 112° Southeast 524 603 39,000  Level Oakland Oceanic (ODAPS)
Wed 12:45:00 PM 48.5257 -148.1162 112° Southeast 533 613 39,000  Level FlightAware Transoceanic
Wed 12:46:00 PM 48.4711 -147.9091 112° Southeast 533 613 39,000  Level FlightAware Transoceanic
Wed 12:47:00 PM 48.4161 -147.7024 112° Southeast 533 613 39,000  Level FlightAware Transoceanic
Wed 12:48:00 PM 48.3608 -147.4962 112° Southeast 533 613 39,000  Level FlightAware Transoceanic
Wed 12:49:00 PM 48.3051 -147.2905 112° Southeast 533 613 39,000  Level FlightAware Transoceanic
Wed 12:50:00 PM 48.2491 -147.0852 112° Southeast 533 613 39,000  Level FlightAware Transoceanic
Wed 12:51:00 PM 48.2076 -146.9382 112° Southeast 524 603 39,000  Level FlightAware Transoceanic
Wed 12:52:00 PM 48.1521 -146.7377 113° Southeast 524 603 39,000  Level FlightAware Transoceanic
Wed 12:53:00 PM 48.0962 -146.5377 113° Southeast 524 603 39,000  Level FlightAware Transoceanic
Wed 12:54:00 PM 48.0400 -146.3381 113° Southeast 524 603 39,000  Level FlightAware Transoceanic
Wed 12:55:00 PM 47.9834 -146.1390 113° Southeast 524 603 39,000  Level FlightAware Transoceanic
Wed 12:56:00 PM 47.9265 -145.9402 113° Southeast 524 603 39,000  Level FlightAware Transoceanic
Wed 12:57:00 PM 47.8693 -145.7420 113° Southeast 524 603 39,000  Level FlightAware Transoceanic
Wed 12:58:00 PM 47.8117 -145.5441 114° Southeast 524 603 39,000  Level FlightAware Transoceanic
Wed 12:58:42 PM 47.7667 -145.3667 114° Southeast 529 609 39,000  Level Oakland Oceanic (ODAPS)
Wed 12:59:00 PM 47.7538 -145.3467 114° Southeast 524 603 39,000  Level FlightAware Transoceanic
Wed 01:00:00 PM 47.6955 -145.1498 114° Southeast 524 603 39,000  Level FlightAware Transoceanic
Wed 01:01:00 PM 47.6369 -144.9532 114° Southeast 524 603 39,000  Level FlightAware Transoceanic
Wed 01:02:00 PM 47.5780 -144.7572 114° Southeast 524 603 39,000  Level FlightAware Transoceanic
Wed 01:03:00 PM 47.5187 -144.5616 114° Southeast 524 603 39,000  Level FlightAware Transoceanic
Wed 01:04:00 PM 47.4591 -144.3664 114° Southeast 524 603 39,000  Level FlightAware Transoceanic
Wed 01:05:00 PM 47.3960 -144.1436 115° Southeast 529 609 39,000  Level FlightAware Transoceanic
Wed 01:06:00 PM 47.3330 -143.9414 115° Southeast 529 609 39,000  Level FlightAware Transoceanic
Wed 01:07:00 PM 47.2696 -143.7397 115° Southeast 529 609 39,000  Level FlightAware Transoceanic
Wed 01:08:00 PM 47.2058 -143.5385 115° Southeast 529 609 39,000  Level FlightAware Transoceanic
Wed 01:09:00 PM 47.1418 -143.3378 115° Southeast 529 609 39,000  Level FlightAware Transoceanic
Wed 01:10:00 PM 47.0773 -143.1376 115° Southeast 529 609 39,000  Level FlightAware Transoceanic
Wed 01:11:00 PM 47.0125 -142.9378 116° Southeast 529 609 39,000  Level FlightAware Transoceanic
Wed 01:12:00 PM 46.9474 -142.7386 116° Southeast 529 609 39,000 638 Level FlightAware Transoceanic
Wed 01:12:34 PM 46.9167 -142.6500 116° Southeast 525 604 40,000  Climbing Oakland Oceanic (ODAPS)
Wed 01:13:00 PM 46.8819 -142.5398 116° Southeast 529 609 39,000 -698 Descending FlightAware Transoceanic
Wed 01:14:00 PM 46.8161 -142.3415 116° Southeast 529 609 39,000  Level FlightAware Transoceanic
Wed 01:15:00 PM 46.7499 -142.1437 116° Southeast 529 609 39,000  Level FlightAware Transoceanic
Wed 01:16:00 PM 46.6834 -141.9464 116° Southeast 529 609 39,000  Level FlightAware Transoceanic
Wed 01:17:00 PM 46.6166 -141.7496 116° Southeast 529 609 39,000 500 Level FlightAware Transoceanic
Wed 01:18:00 PM 46.5313 -141.5034 117° Southeast 525 604 40,000 500 Climbing FlightAware Transoceanic
Wed 01:19:00 PM 46.4660 -141.3138 117° Southeast 525 604 40,000  Level FlightAware Transoceanic
Wed 01:20:00 PM 46.4003 -141.1248 117° Southeast 525 604 40,000  Level FlightAware Transoceanic
Wed 01:21:00 PM 46.3344 -140.9362 117° Southeast 525 604 40,000  Level FlightAware Transoceanic
Wed 01:22:00 PM 46.2681 -140.7480 117° Southeast 525 604 40,000  Level FlightAware Transoceanic
Wed 01:23:00 PM 46.2015 -140.5603 117° Southeast 525 604 40,000  Level FlightAware Transoceanic
Wed 01:24:00 PM 46.1347 -140.3731 117° Southeast 525 604 40,000  Level FlightAware Transoceanic
Wed 01:25:00 PM 46.0675 -140.1863 117° Southeast 525 604 40,000  Level FlightAware Transoceanic
Wed 01:26:00 PM 46.0000 -140.0000 116° Southeast 525 604 40,000 698 Level FlightAware Transoceanic
Wed 01:26:26 PM 46.0333 -140.0833 120° Southeast 513 590 41,000 1,053 Climbing Oakland Oceanic (ODAPS)
Wed 01:26:57 PM 46.0000 -140.0000 116° Southeast 524 603 41,000 -1,765 Level Oakland Oceanic (ODAPS)
Wed 01:27:00 PM 45.9388 -139.8161 116° Southeast 525 604 40,000 -952 Descending FlightAware Transoceanic
Wed 01:28:00 PM 45.8772 -139.6325 116° Southeast 525 604 40,000  Level FlightAware Transoceanic
Wed 01:29:00 PM 45.8154 -139.4494 116° Southeast 525 604 40,000  Level FlightAware Transoceanic
Wed 01:30:00 PM 45.7533 -139.2667 116° Southeast 525 604 40,000  Level FlightAware Transoceanic
Wed 01:31:00 PM 45.6908 -139.0844 116° Southeast 525 604 40,000 500 Level FlightAware Transoceanic
Wed 01:32:00 PM 45.6854 -139.0684 116° Southeast 513 590 41,000 500 Climbing FlightAware Transoceanic
Wed 01:33:00 PM 45.6147 -138.8635 116° Southeast 524 603 41,000  Level FlightAware Transoceanic
Wed 01:34:00 PM 45.5494 -138.6756 116° Southeast 524 603 41,000  Level FlightAware Transoceanic
Wed 01:35:00 PM 45.4837 -138.4882 117° Southeast 524 603 41,000  Level FlightAware Transoceanic
Wed 01:36:00 PM 45.4178 -138.3012 117° Southeast 524 603 41,000  Level FlightAware Transoceanic
Wed 01:37:00 PM 45.3516 -138.1146 117° Southeast 524 603 41,000  Level FlightAware Transoceanic
Wed 01:38:00 PM 45.2851 -137.9285 117° Southeast 524 603 41,000  Level FlightAware Transoceanic
Wed 01:39:00 PM 45.2182 -137.7428 117° Southeast 524 603 41,000  Level FlightAware Transoceanic
Wed 01:40:00 PM 45.1511 -137.5575 117° Southeast 524 603 41,000  Level FlightAware Transoceanic
Wed 01:40:19 PM 45.1500 -137.5500 117° Southeast 527 606 41,000  Level Oakland Oceanic (ODAPS)
Wed 01:41:00 PM 45.0837 -137.3727 117° Southeast 524 603 41,000  Level FlightAware Transoceanic
Wed 01:42:00 PM 45.0159 -137.1883 118° Southeast 524 603 41,000  Level FlightAware Transoceanic
Wed 01:43:00 PM 44.9479 -137.0044 118° Southeast 524 603 41,000  Level FlightAware Transoceanic
Wed 01:44:00 PM 44.8796 -136.8209 118° Southeast 524 603 41,000  Level FlightAware Transoceanic
Wed 01:45:00 PM 44.8110 -136.6378 118° Southeast 524 603 41,000  Level FlightAware Transoceanic
Wed 01:46:00 PM 44.7411 -136.4487 118° Southeast 527 606 41,000  Level FlightAware Transoceanic
Wed 01:47:00 PM 44.6719 -136.2667 118° Southeast 527 606 41,000  Level FlightAware Transoceanic
Wed 01:48:00 PM 44.6024 -136.0851 118° Southeast 527 606 41,000  Level FlightAware Transoceanic
Wed 01:49:00 PM 44.5327 -135.9040 118° Southeast 527 606 41,000  Level FlightAware Transoceanic
Wed 01:50:00 PM 44.4626 -135.7233 119° Southeast 527 606 41,000  Level FlightAware Transoceanic
Wed 01:51:00 PM 44.3923 -135.5430 119° Southeast 527 606 41,000  Level FlightAware Transoceanic
Wed 01:52:00 PM 44.3217 -135.3631 119° Southeast 527 606 41,000  Level FlightAware Transoceanic
Wed 01:53:00 PM 44.2508 -135.1837 119° Southeast 527 606 41,000  Level FlightAware Transoceanic
Wed 01:54:00 PM 44.1796 -135.0047 119° Southeast 527 606 41,000  Level FlightAware Transoceanic
Wed 01:54:10 PM 44.2000 -135.0500 119° Southeast 530 610 41,000  Level Oakland Oceanic (ODAPS)
Wed 01:55:00 PM 44.1082 -134.8262 119° Southeast 527 606 41,000  Level FlightAware Transoceanic
Wed 01:56:00 PM 44.0365 -134.6481 119° Southeast 527 606 41,000  Level FlightAware Transoceanic
Wed 01:57:00 PM 43.9645 -134.4704 119° Southeast 527 606 41,000  Level FlightAware Transoceanic
Wed 01:58:00 PM 43.8922 -134.2931 120° Southeast 527 606 41,000  Level FlightAware Transoceanic
Wed 01:59:00 PM 43.8197 -134.1163 120° Southeast 527 606 41,000  Level FlightAware Transoceanic
Wed 02:00:00 PM 43.7633 -133.9752 120° Southeast 530 610 41,000  Level FlightAware Transoceanic
Wed 02:01:00 PM 43.6896 -133.7977 120° Southeast 530 610 41,000  Level FlightAware Transoceanic
Wed 02:02:00 PM 43.6155 -133.6205 120° Southeast 530 610 41,000  Level FlightAware Transoceanic
Wed 02:03:00 PM 43.5412 -133.4438 120° Southeast 530 610 41,000  Level FlightAware Transoceanic
Wed 02:04:00 PM 43.4667 -133.2675 120° Southeast 530 610 41,000  Level FlightAware Transoceanic
Wed 02:05:00 PM 43.3918 -133.0916 120° Southeast 530 610 41,000  Level FlightAware Transoceanic
Wed 02:06:00 PM 43.3167 -132.9162 121° Southeast 530 610 41,000  Level FlightAware Transoceanic
Wed 02:07:00 PM 43.2413 -132.7413 121° Southeast 530 610 41,000  Level FlightAware Transoceanic
Wed 02:08:00 PM 43.1657 -132.5667 121° Southeast 530 610 41,000  Level FlightAware Transoceanic
Wed 02:08:01 PM 43.1833 -132.6000 121° Southeast 535 616 41,000  Level Oakland Oceanic (ODAPS)
Wed 02:09:00 PM 43.0898 -132.3926 121° Southeast 530 610 41,000  Level FlightAware Transoceanic
Wed 02:10:00 PM 43.0136 -132.2189 121° Southeast 530 610 41,000  Level FlightAware Transoceanic
Wed 02:11:00 PM 42.9372 -132.0457 121° Southeast 530 610 41,000  Level FlightAware Transoceanic
Wed 02:12:00 PM 42.8605 -131.8728 121° Southeast 530 610 41,000  Level FlightAware Transoceanic
Wed 02:13:00 PM 42.7835 -131.7005 121° Southeast 530 610 41,000  Level FlightAware Transoceanic
Wed 02:14:00 PM 42.7171 -131.5481 122° Southeast 535 616 41,000  Level FlightAware Transoceanic
Wed 02:15:00 PM 42.6384 -131.3744 122° Southeast 535 616 41,000  Level FlightAware Transoceanic
Wed 02:16:00 PM 42.5595 -131.2010 122° Southeast 535 616 41,000  Level FlightAware Transoceanic
Wed 02:17:00 PM 42.4804 -131.0282 122° Southeast 535 616 41,000  Level FlightAware Transoceanic
Wed 02:18:00 PM 42.4010 -130.8557 122° Southeast 535 616 41,000  Level FlightAware Transoceanic
Wed 02:19:00 PM 42.3213 -130.6837 122° Southeast 535 616 41,000  Level FlightAware Transoceanic
Wed 02:20:00 PM 42.2413 -130.5121 122° Southeast 535 616 41,000  Level FlightAware Transoceanic
Wed 02:21:00 PM 42.1611 -130.3410 122° Southeast 535 616 41,000  Level FlightAware Transoceanic
Wed 02:21:53 PM 42.1167 -130.2500 122° Southeast 522 601 41,000  Level Oakland Oceanic (ODAPS)
Wed 02:22:00 PM 42.0807 -130.1703 122° Southeast 535 616 41,000  Level FlightAware Transoceanic
Wed 02:23:00 PM 42.0000 -130.0000 126° Southeast 535 616 41,000  Level FlightAware Transoceanic
Wed 02:23:29 PM 42.0000 -130.0000 126° Southeast 527 606 41,000  Level Oakland Oceanic (ODAPS)
Wed 02:24:00 PM 41.9125 -129.8382 126° Southeast 535 616 41,000  Level FlightAware Transoceanic
Wed 02:25:00 PM 41.8248 -129.6768 126° Southeast 535 616 41,000  Level FlightAware Transoceanic
Wed 02:26:00 PM 41.7368 -129.5159 126° Southeast 535 616 41,000  Level FlightAware Transoceanic
Wed 02:27:00 PM 41.6486 -129.3554 126° Southeast 535 616 41,000  Level FlightAware Transoceanic
Wed 02:28:00 PM 41.5824 -129.2353 126° Southeast 522 601 41,000  Level FlightAware Transoceanic
Wed 02:29:00 PM 41.4982 -129.0836 127° Southeast 527 606 41,000  Level FlightAware Transoceanic
Wed 02:30:00 PM 41.4139 -128.9322 127° Southeast 527 606 41,000  Level FlightAware Transoceanic
Wed 02:31:00 PM 41.3294 -128.7813 127° Southeast 527 606 41,000  Level FlightAware Transoceanic
Wed 02:32:00 PM 41.2447 -128.6307 127° Southeast 527 606 41,000  Level FlightAware Transoceanic
Wed 02:33:00 PM 41.1597 -128.4805 127° Southeast 527 606 41,000  Level FlightAware Transoceanic
Wed 02:34:00 PM 41.0746 -128.3308 127° Southeast 527 606 41,000  Level FlightAware Transoceanic
Wed 02:35:00 PM 40.9893 -128.1814 127° Southeast 527 606 41,000  Level FlightAware Transoceanic
Wed 02:36:00 PM 40.9038 -128.0324 127° Southeast 527 606 41,000  Level FlightAware Transoceanic
Wed 02:36:03 PM 40.9333 -128.0833 127° Southeast 526 605 41,000  Level Oakland Oceanic (ODAPS)
Wed 02:37:00 PM 40.8181 -127.8837 127° Southeast 527 606 41,000  Level FlightAware Transoceanic
Wed 02:38:00 PM 40.7322 -127.7355 127° Southeast 527 606 41,000  Level FlightAware Transoceanic
Wed 02:39:00 PM 40.6462 -127.5876 128° Southeast 527 606 41,000  Level FlightAware Transoceanic
Wed 02:40:00 PM 40.5599 -127.4402 128° Southeast 527 606 41,000 -78 Level FlightAware Transoceanic
Wed 02:40:17 PM 40.5403 -127.4058 113° Southeast 521 600 40,900  Descending Oakland Center
Wed 02:41:00 PM 40.4734 -127.2931 128° Southeast 527 606 41,000 98 Climbing FlightAware Transoceanic
Wed 02:41:18 PM 40.4522 -127.2556 128° Southeast 522 601 41,000  Level Oakland Center
Wed 02:42:00 PM 40.3911 -127.1535 128° Southeast 526 605 41,000 -97 Level FlightAware Transoceanic
Wed 02:42:20 PM 40.3469 -127.0769 128° Southeast 520 598 40,900  Descending Oakland Center
Wed 02:43:00 PM 40.3000 -127.0000 112° Southeast 526 605 41,000 60 Climbing FlightAware Transoceanic
Wed 02:44:00 PM 40.2432 -126.8192 112° Southeast 526 605 41,000  Level FlightAware Transoceanic
Wed 02:45:00 PM 40.1862 -126.6386 113° Southeast 526 605 41,000  Level FlightAware Transoceanic
Wed 02:48:21 PM 39.8550 -126.1350 128° Southeast 533 613 41,000  Level FlightAware ADS-B
Wed 02:48:55 PM 39.8000 -126.0470 129° Southeast 533 613 41,000  Level FlightAware ADS-B
Wed 02:49:35 PM 39.7440 -125.9560 129° Southeast 533 613 41,000  Level FlightAware ADS-B
Wed 02:50:06 PM 39.6880 -125.8700 130° Southeast 534 615 41,000  Level FlightAware ADS-B
Wed 02:50:47 PM 39.6310 -125.7790 129° Southeast 533 613 41,000  Level FlightAware ADS-B
Wed 02:51:17 PM 39.5790 -125.6970 129° Southeast 537 618 41,000  Level FlightAware ADS-B
Wed 02:51:59 PM 39.5250 -125.6110 129° Southeast 537 618 41,000  Level FlightAware ADS-B
Wed 02:52:43 PM 39.4520 -125.4970 130° Southeast 537 618 41,000  Level FlightAware ADS-B
Wed 02:53:12 PM 39.3940 -125.4080 130° Southeast 541 623 41,000  Level FlightAware ADS-B
Wed 02:54:07 PM 39.3080 -125.2730 129° Southeast 539 620 41,000  Level FlightAware ADS-B
Wed 02:54:49 PM 39.2400 -125.1670 130° Southeast 539 620 41,000  Level FlightAware ADS-B
Wed 02:55:23 PM 39.1850 -125.0840 131° Southeast 540 621 41,000  Level FlightAware ADS-B
Wed 02:55:57 PM 39.1300 -124.9990 130° Southeast 541 623 41,000  Level FlightAware ADS-B
Wed 02:56:33 PM 39.0720 -124.9090 130° Southeast 542 624 41,000  Level FlightAware ADS-B
Wed 02:57:07 PM 39.0180 -124.8260 130° Southeast 544 626 41,000  Level FlightAware ADS-B
Wed 02:57:39 PM 38.9670 -124.7480 130° Southeast 545 627 41,000  Level FlightAware ADS-B
Wed 02:58:18 PM 38.9030 -124.6510 130° Southeast 545 627 41,000  Level FlightAware ADS-B
Wed 02:58:53 PM 38.8450 -124.5630 130° Southeast 545 627 41,000  Level FlightAware ADS-B
Wed 02:59:24 PM 38.7960 -124.4880 130° Southeast 545 627 41,000  Level FlightAware ADS-B
Wed 03:00:03 PM 38.7320 -124.3910 130° Southeast 546 628 41,000  Level FlightAware ADS-B
Wed 03:00:39 PM 38.6730 -124.3030 131° Southeast 544 626 41,000  Level FlightAware ADS-B
Wed 03:01:11 PM 38.6210 -124.2240 130° Southeast 545 627 41,000  Level FlightAware ADS-B
Wed 03:01:47 PM 38.5610 -124.1350 131° Southeast 547 629 41,000  Level FlightAware ADS-B
Wed 03:02:21 PM 38.5060 -124.0530 131° Southeast 549 632 41,000  Level FlightAware ADS-B
Wed 03:02:59 PM 38.4440 -123.9590 130° Southeast 549 632 41,000  Level FlightAware ADS-B
Wed 03:03:29 PM 38.3940 -123.8850 131° Southeast 549 632 41,000  Level FlightAware ADS-B
Wed 03:04:06 PM 38.3340 -123.7930 130° Southeast 550 633 41,000  Level FlightAware ADS-B
Wed 03:04:41 PM 38.2750 -123.7050 130° Southeast 550 633 41,000  Level FlightAware ADS-B
Wed 03:05:13 PM 38.2250 -123.6300 130° Southeast 550 633 41,000  Level FlightAware ADS-B
Wed 03:05:49 PM 38.1640 -123.5390 130° Southeast 550 633 41,000  Level FlightAware ADS-B
Wed 03:06:25 PM 38.1060 -123.4510 130° Southeast 550 633 41,000  Level FlightAware ADS-B
Wed 03:07:03 PM 38.0420 -123.3570 131° Southeast 551 634 41,000  Level FlightAware ADS-B
Wed 03:07:40 PM 37.9820 -123.2680 131° Southeast 553 636 41,000  Level FlightAware ADS-B
Wed 03:08:13 PM 37.9270 -123.1860 130° Southeast 554 638 41,000  Level FlightAware ADS-B
Wed 03:08:47 PM 37.8690 -123.1000 130° Southeast 554 638 41,000  Level FlightAware ADS-B
Wed 03:09:21 PM 37.8150 -123.0210 131° Southeast 554 638 41,000  Level FlightAware ADS-B
Wed 03:09:59 PM 37.7500 -122.9260 131° Southeast 556 640 41,000  Level FlightAware ADS-B
Wed 03:10:29 PM 37.6990 -122.8510 131° Southeast 557 641 41,000  Level FlightAware ADS-B
Wed 03:11:03 PM 37.6420 -122.7680 131° Southeast 558 642 41,000  Level FlightAware ADS-B
Wed 03:11:53 PM 37.5560 -122.6430 131° Southeast 558 642 41,000  Level FlightAware ADS-B
Wed 03:12:28 PM 37.4982 -122.5590 131° Southeast 560 644 41,000  Level FlightAware ADS-B
Wed 03:13:02 PM 37.4388 -122.4730 131° Southeast 559 643 41,000  Level FlightAware ADS-B
Wed 03:13:34 PM 37.3856 -122.3960 131° Southeast 559 643 41,000  Level FlightAware ADS-B
Wed 03:14:11 PM 37.3229 -122.3050 131° Southeast 559 643 41,000  Level FlightAware ADS-B
Wed 03:14:42 PM 37.2700 -122.2300 132° Southeast 558 642 41,000  Level FlightAware ADS-B
Wed 03:15:12 PM 37.2192 -122.1570 131° Southeast 554 638 41,000  Level FlightAware ADS-B
Wed 03:15:43 PM 37.1686 -122.0840 131° Southeast 544 626 41,000  Level FlightAware ADS-B
Wed 03:16:18 PM 37.1109 -122.0020 131° Southeast 534 615 41,000  Level FlightAware ADS-B
Wed 03:16:50 PM 37.0577 -121.9260 131° Southeast 531 611 41,000  Level FlightAware ADS-B
Wed 03:17:27 PM 36.9991 -121.8430 131° Southeast 531 611 41,000  Level FlightAware ADS-B
Wed 03:17:57 PM 36.9505 -121.7740 131° Southeast 530 610 41,000  Level FlightAware ADS-B
Wed 03:18:28 PM 36.8999 -121.7020 131° Southeast 531 611 41,000  Level FlightAware ADS-B
Wed 03:19:00 PM 36.8483 -121.6300 132° Southeast 531 611 41,000  Level FlightAware ADS-B
Wed 03:19:36 PM 36.7890 -121.5470 132° Southeast 529 609 41,000  Level FlightAware ADS-B
Wed 03:19:46 PM 36.7726 -121.5230 130° Southeast 530 610 41,000  Level FlightAware ADS-B
Wed 03:20:20 PM 36.7184 -121.4470 132° Southeast 528 608 41,000  Level FlightAware ADS-B
Wed 03:20:52 PM 36.6662 -121.3740 132° Southeast 528 608 41,000  Level FlightAware ADS-B
Wed 03:21:33 PM 36.5998 -121.2810 132° Southeast 526 605 41,000  Level FlightAware ADS-B
Wed 03:22:05 PM 36.5484 -121.2100 132° Southeast 526 605 41,000  Level FlightAware ADS-B
Wed 03:23:06 PM 36.4490 -121.0720 132° Southeast 527 606 41,000  Level FlightAware ADS-B
Wed 03:23:16 PM 36.4322 -121.0480 131° Southeast 526 605 41,000  Level FlightAware ADS-B
Wed 03:24:17 PM 36.3350 -120.9140 132° Southeast 527 606 41,000  Level FlightAware ADS-B
Wed 03:24:52 PM 36.2770 -120.8350 132° Southeast 526 605 41,000  Level FlightAware ADS-B
Wed 03:25:24 PM 36.2280 -120.7670 132° Southeast 526 605 41,000  Level FlightAware ADS-B
Wed 03:26:00 PM 36.1690 -120.6860 132° Southeast 524 603 41,000  Level FlightAware ADS-B
Wed 03:26:36 PM 36.1150 -120.6030 129° Southeast 531 611 41,000  Level FlightAware ADS-B
Wed 03:27:12 PM 36.0760 -120.4950 114° Southeast 535 616 41,000  Level FlightAware ADS-B
Wed 03:27:45 PM 36.0460 -120.4020 112° Southeast 536 617 41,000  Level FlightAware ADS-B
Wed 03:28:22 PM 36.0120 -120.3000 112° Southeast 533 613 41,000  Level FlightAware ADS-B
Wed 03:28:50 PM 35.9720 -120.2320 126° Southeast 519 597 41,000  Level FlightAware ADS-B
Wed 03:29:18 PM 35.9210 -120.1800 140° Southeast 503 579 41,000  Level FlightAware ADS-B
Wed 03:29:54 PM 35.8500 -120.1280 149° Southeast 499 574 41,000  Level FlightAware ADS-B
Wed 03:30:26 PM 35.7860 -120.0810 149° Southeast 496 571 41,000  Level FlightAware ADS-B
Wed 03:31:02 PM 35.7150 -120.0290 149° Southeast 494 568 41,000  Level FlightAware ADS-B
Wed 03:31:38 PM 35.6450 -119.9750 148° Southeast 497 572 41,000 -441 Level FlightAware ADS-B
Wed 03:32:10 PM 35.5850 -119.9250 146° Southeast 499 574 40,500 -1,941 Descending FlightAware ADS-B
Wed 03:32:46 PM 35.5160 -119.8650 145° Southeast 510 587 38,800 -1,840 Descending FlightAware ADS-B
Wed 03:33:25 PM 35.4460 -119.8060 146° Southeast 516 594 38,200 -480 Descending FlightAware ADS-B
Wed 03:34:01 PM 35.3870 -119.7540 144° Southeast 516 594 38,200  Level FlightAware ADS-B
Wed 03:34:37 PM 35.3270 -119.7030 145° Southeast 516 594 38,200  Level FlightAware ADS-B
Wed 03:35:13 PM 35.2670 -119.6520 145° Southeast 516 594 38,200  Level FlightAware ADS-B
Wed 03:35:49 PM 35.2070 -119.6000 145° Southeast 516 594 38,200  Level FlightAware ADS-B
Wed 03:36:25 PM 35.1470 -119.5490 145° Southeast 516 594 38,200 -9,042 Level FlightAware ADS-B
Wed 03:37:00 PM 35.0110 -119.4320 145° Southeast 530 610 27,500 -8,917 Descending FlightAware ADS-B
Wed 03:37:37 PM 34.9490 -119.3770 144° Southeast 530 610 27,500 -2,240 Level FlightAware ADS-B
Wed 03:38:15 PM 34.8600 -119.3040 146° Southeast 505 581 24,700 -2,462 Descending FlightAware ADS-B
Wed 03:38:55 PM 34.7910 -119.2460 145° Southeast 498 573 24,300 -1,360 Descending FlightAware ADS-B
Wed 03:39:30 PM 34.7270 -119.1910 145° Southeast 442 509 23,000 -2,348 Descending FlightAware ADS-B
Wed 03:40:04 PM 34.6730 -119.1460 146° Southeast 431 496 21,600 -2,417 Descending FlightAware ADS-B
Wed 03:40:42 PM 34.6120 -119.0950 145° Southeast 420 483 20,100 -2,053 Descending FlightAware ADS-B
Wed 03:41:20 PM 34.5500 -119.0430 145° Southeast 403 464 19,000 -1,286 Descending FlightAware ADS-B
Wed 03:41:52 PM 34.5000 -119.0010 145° Southeast 401 461 18,600 -1,324 Descending FlightAware ADS-B
Wed 03:42:28 PM 34.4460 -118.9560 145° Southeast 393 452 17,500 -1,913 Descending FlightAware ADS-B
Wed 03:43:01 PM 34.3970 -118.9150 145° Southeast 383 441 16,400 -2,029 Descending FlightAware ADS-B
Wed 03:43:36 PM 34.3440 -118.8780 150° Southeast 369 425 15,200 -1,917 Descending FlightAware ADS-B
Wed 03:44:13 PM 34.2850 -118.8550 162° South 359 413 14,100 -1,703 Descending FlightAware ADS-B
Wed 03:44:50 PM 34.2270 -118.8330 163° South 355 409 13,100 -1,556 Descending FlightAware ADS-B
Wed 03:45:07 PM 34.1990 -118.8250 167° South 350 403 12,700 -1,091 Descending FlightAware ADS-B
Wed 03:45:34 PM 34.1590 -118.8320 188° South 326 375 12,300 -571 Descending FlightAware ADS-B
Wed 03:46:10 PM 34.1080 -118.8540 200° South 300 345 12,100 -486 Descending FlightAware ADS-B
Wed 03:46:48 PM 34.0610 -118.8740 199° South 282 325 11,700 -655 Descending FlightAware ADS-B
Wed 03:47:05 PM 34.0380 -118.8790 190° South 280 322 11,500 -750 Descending FlightAware ADS-B
Wed 03:47:28 PM 34.0110 -118.8650 157° South 282 325 11,200 -923 Descending FlightAware ADS-B
Wed 03:47:44 PM 34.0040 -118.8440 112° Southeast 283 326 10,900 -840 Descending FlightAware ADS-B
Wed 03:48:18 PM 34.0120 -118.7930 79° East 267 307 10,500 -716 Descending FlightAware ADS-B
Wed 03:48:51 PM 34.0220 -118.7500 74° East 259 298 10,100 -444 Descending FlightAware ADS-B
Wed 03:49:12 PM 34.0260 -118.7180 81° East 260 299 10,100  Level FlightAware ADS-B
Wed 03:49:49 PM 34.0230 -118.6620 94° East 260 299 10,100 -109 Level FlightAware ADS-B
Wed 03:50:07 PM 34.0210 -118.6380 96° East 255 293 10,000 -1,000 Descending FlightAware ADS-B
Wed 03:50:31 PM 34.0190 -118.6030 94° East 256 295 9,400 -1,404 Descending FlightAware ADS-B
Wed 03:50:54 PM 34.0170 -118.5700 94° East 252 290 8,900 -1,256 Descending FlightAware ADS-B
Wed 03:51:14 PM 34.0160 -118.5430 93° East 251 289 8,500 -1,231 Descending FlightAware ADS-B
Wed 03:51:33 PM 34.0140 -118.5150 95° East 250 288 8,100 -1,385 Descending FlightAware ADS-B
Wed 03:51:53 PM 34.0120 -118.4890 95° East 238 274 7,600 -1,091 Descending FlightAware ADS-B
Wed 03:52:17 PM 34.0110 -118.4590 92° East 221 254 7,300 -837 Descending FlightAware ADS-B
Wed 03:52:36 PM 34.0120 -118.4360 87° East 212 244 7,000 -938 Descending FlightAware ADS-B
Wed 03:52:49 PM 34.0130 -118.4210 85° East 208 239 6,800 -1,000 Descending FlightAware ADS-B
Wed 03:53:12 PM 34.0150 -118.3980 84° East 202 232 6,400 -1,091 Descending FlightAware ADS-B
Wed 03:53:33 PM 34.0160 -118.3730 87° East 196 226 6,000 -1,538 Descending FlightAware ADS-B
Wed 03:53:51 PM 34.0180 -118.3520 83° East 188 216 5,400 -1,941 Descending FlightAware ADS-B
Wed 03:54:07 PM 34.0190 -118.3370 85° East 188 216 4,900 -1,538 Descending FlightAware ADS-B
Wed 03:54:30 PM 34.0220 -118.3110 82° East 191 220 4,400 -1,135 Descending FlightAware ADS-B
Wed 03:54:44 PM 34.0230 -118.2970 85° East 190 219 4,200 -581 Descending FlightAware ADS-B
Wed 03:55:01 PM 34.0240 -118.2840 85° East 189 217 4,100 -150 Descending FlightAware ADS-B
Wed 03:55:24 PM 34.0260 -118.2670 82° East 190 219 4,100  Level FlightAware ADS-B
Wed 03:55:45 PM 34.0290 -118.2340 84° East 184 212 4,100  Level FlightAware ADS-B
Wed 03:56:09 PM 34.0200 -118.2150 120° Southeast 172 198 4,100  Level FlightAware ADS-B
Wed 03:56:17 PM 34.0120 -118.2120 163° South 173 199 4,100  Level FlightAware ADS-B
Wed 03:56:27 PM 34.0050 -118.2110 173° South 174 200 4,100  Level FlightAware ADS-B
Wed 03:56:49 PM 33.9880 -118.2130 186° South 175 201 4,100 -200 Level FlightAware ADS-B
Wed 03:56:57 PM 33.9830 -118.2180 220° Southwest 178 205 4,000 -750 Descending FlightAware ADS-B
Wed 03:57:05 PM 33.9790 -118.2240 231° Southwest 178 205 3,900 -1,043 Descending FlightAware ADS-B
Wed 03:57:20 PM 33.9730 -118.2380 243° Southwest 174 200 3,600 -1,588 Descending FlightAware ADS-B
Wed 03:57:39 PM 33.9680 -118.2560 251° West 177 204 3,000 -1,692 Descending FlightAware ADS-B
Wed 03:57:59 PM 33.9650 -118.2730 258° West 174 200 2,500 -1,463 Descending FlightAware ADS-B
Wed 03:58:20 PM 33.9640 -118.2920 266° West 158 182 2,000 -1,043 Descending FlightAware ADS-B
Wed 03:58:45 PM 33.9610 -118.3140 261° West 145 167 1,700 -692 Descending FlightAware ADS-B
Wed 03:59:12 PM 33.9590 -118.3300 261° West 141 162 1,400 -381 Descending FlightAware ADS-B
Wed 03:59:48 PM 33.9570 -118.3580 265° West 141 162 1,300 -650 Descending FlightAware ADS-B
Wed 04:01:12 PM 33.9511 -118.4178 265° West 143 165 100 -857 Descending Los Angeles Center

Login

Don't have an account? Register now (free) for customized features, flight alerts, and more!